createdAt,value
2023-05-20T00:00:49.405Z,98433.69
2023-05-20T00:03:20.492Z,98431.09
2023-05-20T00:05:51.601Z,98433.88
2023-05-20T00:08:22.766Z,98430.88
2023-05-20T00:10:55.998Z,98418.53
2023-05-20T00:13:26.689Z,98420.56
2023-05-20T00:15:57.240Z,98420.09
2023-05-20T00:18:27.840Z,98434.94
2023-05-20T00:20:58.311Z,98438.50
2023-05-20T00:23:28.810Z,98427.28
2023-05-20T00:26:02.205Z,98431.59
2023-05-20T00:28:32.770Z,98430.28
2023-05-20T00:31:03.322Z,98424.97
2023-05-20T00:33:34.068Z,98422.63
2023-05-20T00:36:04.617Z,98423.56
2023-05-20T00:38:35.157Z,98418.75
2023-05-20T00:41:08.492Z,98416.25
2023-05-20T00:43:39.058Z,98413.00
2023-05-20T00:46:09.811Z,98403.84
2023-05-20T00:48:46.042Z,98410.59
2023-05-20T00:51:18.115Z,98414.38
2023-05-20T00:53:48.813Z,98412.69
2023-05-20T00:56:22.540Z,98414.69
2023-05-20T00:58:53.432Z,98410.81
2023-05-20T01:01:24.277Z,98417.16
2023-05-20T01:03:55.491Z,98424.44
2023-05-20T01:06:26.286Z,98415.69
2023-05-20T01:08:56.868Z,98421.00
2023-05-20T01:11:37.645Z,98415.84
2023-05-20T01:14:12.238Z,98416.78
2023-05-20T01:16:43.728Z,98417.31
2023-05-20T01:19:30.407Z,98413.53
2023-05-20T01:22:02.811Z,98412.06
2023-05-20T01:24:36.538Z,98407.75
2023-05-20T01:27:10.796Z,98402.19
2023-05-20T01:29:41.603Z,98403.44
2023-05-20T01:32:20.695Z,98409.19
2023-05-20T01:34:54.221Z,98413.84
2023-05-20T01:37:26.519Z,98419.16
2023-05-20T01:40:08.054Z,98406.94
2023-05-20T01:42:40.519Z,98415.00
2023-05-20T01:45:12.773Z,98415.50
2023-05-20T01:47:43.327Z,98415.50
2023-05-20T01:50:14.886Z,98412.66
2023-05-20T01:52:45.496Z,98407.25
2023-05-20T01:55:22.821Z,98415.75
2023-05-20T01:57:53.315Z,98404.78
2023-05-20T02:00:24.001Z,98400.38
2023-05-20T02:02:54.923Z,98394.81
2023-05-20T02:05:25.353Z,98393.44
2023-05-20T02:07:55.869Z,98397.69
2023-05-20T02:10:29.462Z,98390.78
2023-05-20T02:13:00.221Z,98388.19
2023-05-20T02:15:30.796Z,98391.25
2023-05-20T02:18:01.395Z,98380.50
2023-05-20T02:20:32.858Z,98384.72
2023-05-20T02:23:06.111Z,98372.94
2023-05-20T02:25:39.230Z,98377.44
2023-05-20T02:28:10.911Z,98364.50
2023-05-20T02:30:41.858Z,98366.22
2023-05-20T02:33:12.583Z,98369.47
2023-05-20T02:35:43.456Z,98367.69
2023-05-20T02:38:14.186Z,98373.09
2023-05-20T02:40:50.413Z,98364.97
2023-05-20T02:43:20.948Z,98367.13
2023-05-20T02:45:51.740Z,98378.63
2023-05-20T02:48:22.304Z,98378.44
2023-05-20T02:50:53.326Z,98377.44
2023-05-20T02:53:23.539Z,98380.69
2023-05-20T02:55:56.781Z,98385.78
2023-05-20T02:58:27.927Z,98392.47
2023-05-20T03:00:58.861Z,98389.59
2023-05-20T03:03:30.200Z,98382.13
2023-05-20T03:06:00.650Z,98384.16
2023-05-20T03:08:31.177Z,98382.03
2023-05-20T03:11:05.572Z,98373.88
2023-05-20T03:13:37.839Z,98376.06
2023-05-20T03:16:08.959Z,98374.22
2023-05-20T03:18:39.590Z,98368.97
2023-05-20T03:21:10.125Z,98369.34
2023-05-20T03:23:40.605Z,98368.09
2023-05-20T03:26:14.734Z,98361.34
2023-05-20T03:28:45.268Z,98361.66
2023-05-20T03:31:16.327Z,98363.44
2023-05-20T03:33:46.973Z,98368.22
2023-05-20T03:36:18.055Z,98374.31
2023-05-20T03:38:48.652Z,98371.69
2023-05-20T03:41:22.583Z,98370.34
2023-05-20T03:43:53.273Z,98367.78
2023-05-20T03:46:23.884Z,98374.03
2023-05-20T03:48:54.511Z,98378.56
2023-05-20T03:51:25.092Z,98384.75
2023-05-20T03:53:56.649Z,98389.34
2023-05-20T03:56:29.767Z,98399.69
2023-05-20T03:59:00.508Z,98404.13
2023-05-20T04:01:32.325Z,98398.78
2023-05-20T04:04:03.145Z,98405.59
2023-05-20T04:06:34.489Z,98397.84
2023-05-20T04:09:05.210Z,98392.06
2023-05-20T04:11:38.357Z,98388.06
2023-05-20T04:14:08.882Z,98388.72
2023-05-20T04:16:39.763Z,98386.00
2023-05-20T04:19:11.148Z,98387.44
2023-05-20T04:21:41.857Z,98388.88
2023-05-20T04:24:12.485Z,98396.56
2023-05-20T04:26:45.767Z,98399.97
2023-05-20T04:29:16.299Z,98405.22
2023-05-20T04:31:46.941Z,98397.44
2023-05-20T04:34:19.758Z,98399.75
2023-05-20T04:36:52.340Z,98396.59
2023-05-20T04:39:23.124Z,98393.81
2023-05-20T04:41:59.938Z,98403.34
2023-05-20T04:44:31.203Z,98395.88
2023-05-20T04:47:01.870Z,98399.31
2023-05-20T04:49:32.417Z,98398.16
2023-05-20T04:52:03.840Z,98400.09
2023-05-20T04:54:34.915Z,98395.00
2023-05-20T04:57:08.558Z,98389.44
2023-05-20T04:59:39.280Z,98384.25
2023-05-20T05:02:09.782Z,98385.78
2023-05-20T05:04:41.973Z,98384.25
2023-05-20T05:07:12.566Z,98381.84
2023-05-20T05:09:43.117Z,98385.47
2023-05-20T05:12:16.333Z,98380.38
2023-05-20T05:14:47.548Z,98391.84
2023-05-20T05:17:18.722Z,98383.03
2023-05-20T05:19:49.252Z,98386.56
2023-05-20T05:22:19.773Z,98380.66
2023-05-20T05:24:50.307Z,98382.03
2023-05-20T05:27:23.511Z,98372.53
2023-05-20T05:29:54.276Z,98370.91
2023-05-20T05:32:24.928Z,98373.22
2023-05-20T05:34:55.547Z,98379.56
2023-05-20T05:37:26.597Z,98381.38
2023-05-20T05:39:57.129Z,98387.94
2023-05-20T05:42:30.283Z,98387.28
2023-05-20T05:45:01.058Z,98388.38
2023-05-20T05:47:32.980Z,98391.75
2023-05-20T05:50:04.184Z,98381.81
2023-05-20T05:52:36.964Z,98387.19
2023-05-20T05:55:11.599Z,98383.47
2023-05-20T05:57:45.076Z,98377.59
2023-05-20T06:00:20.027Z,98380.16
2023-05-20T06:02:51.003Z,98366.44
2023-05-20T06:05:35.050Z,98372.03
2023-05-20T06:08:05.915Z,98376.34
2023-05-20T06:10:37.963Z,98382.38
2023-05-20T06:13:11.339Z,98378.66
2023-05-20T06:15:43.530Z,98380.81
2023-05-20T06:18:14.018Z,98369.72
2023-05-20T06:20:44.748Z,98378.16
2023-05-20T06:23:15.334Z,98365.53
2023-05-20T06:26:04.478Z,98364.03
2023-05-20T06:28:38.314Z,98360.53
2023-05-20T06:31:09.466Z,98370.00
2023-05-20T06:33:40.457Z,98369.69
2023-05-20T06:36:14.664Z,98369.72
2023-05-20T06:38:45.189Z,98366.47
2023-05-20T06:41:17.965Z,98358.88
2023-05-20T06:43:53.241Z,98364.59
2023-05-20T06:46:42.432Z,98358.84
2023-05-20T06:49:16.501Z,98364.03
2023-05-20T06:51:47.178Z,98370.69
2023-05-20T06:54:17.773Z,98364.66
2023-05-20T06:56:48.761Z,98367.78
2023-05-20T06:59:21.935Z,98357.22
2023-05-20T07:01:52.554Z,98361.09
2023-05-20T07:04:23.121Z,98349.63
2023-05-20T07:06:53.727Z,98354.22
2023-05-20T07:09:24.360Z,98352.94
2023-05-20T07:11:54.980Z,98356.06
2023-05-20T07:14:28.170Z,98339.22
2023-05-20T07:16:59.108Z,98335.84
2023-05-20T07:19:29.922Z,98338.06
2023-05-20T07:22:00.172Z,98336.03
2023-05-20T07:24:57.167Z,98334.84
2023-05-20T07:27:27.675Z,98331.13
2023-05-20T07:30:01.015Z,98333.44
2023-05-20T07:32:31.690Z,98328.09
2023-05-20T07:35:02.788Z,98315.47
2023-05-20T07:37:33.453Z,98321.28
2023-05-20T07:40:05.735Z,98323.41
2023-05-20T07:42:36.271Z,98310.56
2023-05-20T07:45:11.857Z,98315.00
2023-05-20T07:47:42.649Z,98304.00
2023-05-20T07:50:14.386Z,98307.50
2023-05-20T07:52:56.086Z,98302.31
2023-05-20T07:55:30.092Z,98305.31
2023-05-20T07:58:01.023Z,98305.34
2023-05-20T08:00:34.502Z,98296.19
2023-05-20T08:03:08.665Z,98293.53
2023-05-20T08:05:58.061Z,98282.06
2023-05-20T08:08:30.806Z,98280.84
2023-05-20T08:11:07.633Z,98285.13
2023-05-20T08:13:38.328Z,98296.34
2023-05-20T08:16:12.063Z,98295.63
2023-05-20T08:18:42.991Z,98285.31
2023-05-20T08:21:16.183Z,98278.47
2023-05-20T08:23:46.818Z,98275.44
2023-05-20T08:26:17.164Z,98268.69
2023-05-20T08:28:48.687Z,98279.31
2023-05-20T08:31:23.370Z,98270.31
2023-05-20T08:33:54.374Z,98265.53
2023-05-20T08:36:24.929Z,98259.91
2023-05-20T08:38:56.017Z,98256.56
2023-05-20T08:41:27.001Z,98261.72
2023-05-20T08:43:58.317Z,98258.41
2023-05-20T08:46:31.844Z,98267.38
2023-05-20T08:49:03.069Z,98251.88
2023-05-20T08:51:36.729Z,98252.44
2023-05-20T08:54:07.468Z,98253.19
2023-05-20T08:56:39.472Z,98252.19
2023-05-20T08:59:10.067Z,98243.25
2023-05-20T09:01:46.115Z,98242.00
2023-05-20T09:04:16.679Z,98247.69
2023-05-20T09:06:48.050Z,98242.81
2023-05-20T09:09:19.147Z,98239.63
2023-05-20T09:11:49.693Z,98229.16
2023-05-20T09:14:20.221Z,98230.44
2023-05-20T09:16:54.690Z,98235.00
2023-05-20T09:19:26.572Z,98231.06
2023-05-20T09:21:58.655Z,98231.31
2023-05-20T09:24:30.138Z,98226.22
2023-05-20T09:27:01.252Z,98225.50
2023-05-20T09:29:31.817Z,98226.03
2023-05-20T09:32:05.995Z,98215.69
2023-05-20T09:34:37.004Z,98212.19
2023-05-20T09:37:10.401Z,98209.84
2023-05-20T09:39:48.651Z,98202.13
2023-05-20T09:42:26.668Z,98195.38
2023-05-20T09:44:58.225Z,98194.03
2023-05-20T09:47:31.754Z,98187.75
2023-05-20T09:50:04.146Z,98184.91
2023-05-20T09:52:34.878Z,98186.13
2023-05-20T09:55:07.748Z,98181.31
2023-05-20T09:57:40.126Z,98181.06
2023-05-20T10:00:13.881Z,98166.00
2023-05-20T10:02:50.271Z,98174.44
2023-05-20T10:05:24.542Z,98165.28
2023-05-20T10:08:45.675Z,98162.97
2023-05-20T10:11:25.505Z,98156.81
2023-05-20T10:14:25.360Z,98150.69
2023-05-20T10:17:09.182Z,98155.63
2023-05-20T10:19:42.467Z,98148.38
2023-05-20T10:22:14.365Z,98157.13
2023-05-20T10:24:47.065Z,98153.66
2023-05-20T10:27:20.937Z,98158.44
2023-05-20T10:29:55.076Z,98151.38
2023-05-20T10:32:31.489Z,98145.22
2023-05-20T10:35:07.128Z,98146.69
2023-05-20T10:37:45.586Z,98143.53
2023-05-20T10:40:19.129Z,98142.22
2023-05-20T10:42:49.750Z,98138.16
2023-05-20T10:45:32.988Z,98140.28
2023-05-20T10:48:03.746Z,98139.66
2023-05-20T10:50:43.509Z,98137.63
2023-05-20T10:53:32.262Z,98126.53
2023-05-20T10:56:04.387Z,98131.81
2023-05-20T10:58:41.948Z,98131.25
2023-05-20T11:01:14.458Z,98125.09
2023-05-20T11:03:47.248Z,98116.69
2023-05-20T11:06:22.162Z,98110.66
2023-05-20T11:08:52.675Z,98118.88
2023-05-20T11:11:23.397Z,98108.13
2023-05-20T11:13:56.815Z,98107.25
2023-05-20T11:16:27.648Z,98107.41
2023-05-20T11:18:58.210Z,98112.44
2023-05-20T11:21:31.597Z,98101.38
2023-05-20T11:24:02.096Z,98106.63
2023-05-20T11:26:33.580Z,98101.94
2023-05-20T11:29:05.020Z,98097.19
2023-05-20T11:31:35.927Z,98094.66
2023-05-20T11:34:06.450Z,98098.03
2023-05-20T11:36:44.675Z,98096.00
2023-05-20T11:39:16.470Z,98091.88
2023-05-20T11:41:47.184Z,98092.69
2023-05-20T11:44:17.653Z,98082.56
2023-05-20T11:46:51.025Z,98074.75
2023-05-20T11:49:21.557Z,98072.66
2023-05-20T11:51:55.048Z,98070.88
2023-05-20T11:54:27.099Z,98067.97
2023-05-20T11:56:58.728Z,98074.50
2023-05-20T11:59:29.911Z,98079.97
2023-05-20T12:02:00.536Z,98077.78
2023-05-20T12:04:31.097Z,98068.22
2023-05-20T12:07:04.441Z,98065.50
2023-05-20T12:09:34.949Z,98079.91
2023-05-20T12:12:05.419Z,98066.22
2023-05-20T12:14:35.903Z,98067.25
2023-05-20T12:17:06.453Z,98064.19
2023-05-20T12:19:38.315Z,98053.16
2023-05-20T12:22:13.051Z,98064.75
2023-05-20T12:24:43.584Z,98052.41
2023-05-20T12:27:14.113Z,98048.34
2023-05-20T12:29:44.568Z,98041.75
2023-05-20T12:32:15.217Z,98040.69
2023-05-20T12:34:45.865Z,98040.53
2023-05-20T12:37:18.985Z,98031.03
2023-05-20T12:39:49.530Z,98039.81
2023-05-20T12:42:19.987Z,98033.69
2023-05-20T12:44:50.453Z,98023.84
2023-05-20T12:47:21.024Z,98025.88
2023-05-20T12:49:51.623Z,98031.22
2023-05-20T12:52:24.692Z,98032.19
2023-05-20T12:54:55.229Z,98032.00
2023-05-20T12:57:26.103Z,98033.84
2023-05-20T12:59:56.913Z,98030.16
2023-05-20T13:02:27.490Z,98028.59
2023-05-20T13:04:58.101Z,98023.75
2023-05-20T13:07:32.244Z,98023.25
2023-05-20T13:10:03.104Z,98021.34
2023-05-20T13:12:33.643Z,98035.97
2023-05-20T13:15:04.579Z,98020.19
2023-05-20T13:17:35.186Z,98010.84
2023-05-20T13:20:06.821Z,98008.19
2023-05-20T13:22:40.020Z,98008.38
2023-05-20T13:25:12.226Z,98005.31
2023-05-20T13:27:47.980Z,97997.94
2023-05-20T13:30:18.497Z,97996.88
2023-05-20T13:32:49.167Z,97996.75
2023-05-20T13:35:20.186Z,97992.03
2023-05-20T13:37:53.283Z,97983.06
2023-05-20T13:40:24.177Z,97981.69
2023-05-20T13:42:55.061Z,97977.66
2023-05-20T13:45:25.908Z,97987.13
2023-05-20T13:47:56.558Z,97980.59
2023-05-20T13:50:27.133Z,97989.88
2023-05-20T13:53:00.291Z,97980.53
2023-05-20T13:55:31.940Z,97981.78
2023-05-20T13:58:02.394Z,97979.28
2023-05-20T14:00:33.225Z,97980.75
2023-05-20T14:03:05.031Z,97974.28
2023-05-20T14:05:38.961Z,97968.38
2023-05-20T14:08:12.108Z,97965.03
2023-05-20T14:10:42.890Z,97960.06
2023-05-20T14:13:13.432Z,97965.16
2023-05-20T14:15:44.113Z,97957.34
2023-05-20T14:18:14.653Z,97964.91
2023-05-20T14:20:45.632Z,97948.00
2023-05-20T14:23:18.810Z,97961.78
2023-05-20T14:25:52.744Z,97956.00
2023-05-20T14:28:23.224Z,97955.50
2023-05-20T14:30:54.717Z,97952.72
2023-05-20T14:33:25.254Z,97945.59
2023-05-20T14:35:55.771Z,97951.84
2023-05-20T14:38:28.997Z,97951.66
2023-05-20T14:40:59.611Z,97953.22
2023-05-20T14:43:31.610Z,97958.69
2023-05-20T14:46:02.126Z,97952.19
2023-05-20T14:48:32.755Z,97960.00
2023-05-20T14:51:03.262Z,97959.34
2023-05-20T14:53:36.351Z,97953.97
2023-05-20T14:56:07.299Z,97962.78
2023-05-20T14:58:38.761Z,97965.38
2023-05-20T15:01:09.382Z,97966.66
2023-05-20T15:03:40.053Z,97962.31
2023-05-20T15:06:11.111Z,97959.50
2023-05-20T15:08:44.577Z,97954.56
2023-05-20T15:11:15.068Z,97954.31
2023-05-20T15:13:46.713Z,97946.50
2023-05-20T15:16:19.548Z,97952.13
2023-05-20T15:18:50.174Z,97947.38
2023-05-20T15:21:21.628Z,97947.72
2023-05-20T15:23:55.687Z,97940.75
2023-05-20T15:26:27.100Z,97946.28
2023-05-20T15:28:57.585Z,97948.19
2023-05-20T15:31:28.354Z,97939.31
2023-05-20T15:33:59.051Z,97943.81
2023-05-20T15:36:29.705Z,97936.81
2023-05-20T15:39:02.839Z,97945.13
2023-05-20T15:41:34.984Z,97946.22
2023-05-20T15:44:05.642Z,97941.13
2023-05-20T15:46:36.380Z,97930.00
2023-05-20T15:49:07.016Z,97930.59
2023-05-20T15:51:37.283Z,97931.06
2023-05-20T15:54:10.446Z,97935.56
2023-05-20T15:56:40.986Z,97941.31
2023-05-20T15:59:11.601Z,97946.94
2023-05-20T16:01:42.261Z,97946.16
2023-05-20T16:04:13.388Z,97943.69
2023-05-20T16:06:44.795Z,97934.47
2023-05-20T16:09:18.562Z,97935.25
2023-05-20T16:11:49.862Z,97927.88
2023-05-20T16:14:20.724Z,97922.97
2023-05-20T16:16:56.019Z,97927.13
2023-05-20T16:19:26.863Z,97927.88
2023-05-20T16:21:57.667Z,97917.25
2023-05-20T16:24:30.832Z,97917.78
2023-05-20T16:27:01.361Z,97910.59
2023-05-20T16:29:31.791Z,97912.31
2023-05-20T16:32:02.779Z,97924.38
2023-05-20T16:34:33.434Z,97916.88
2023-05-20T16:37:04.051Z,97913.28
2023-05-20T16:39:37.200Z,97916.09
2023-05-20T16:42:09.387Z,97909.47
2023-05-20T16:44:40.162Z,97904.00
2023-05-20T16:47:11.844Z,97902.69
2023-05-20T16:49:42.365Z,97907.97
2023-05-20T16:52:12.755Z,97909.13
2023-05-20T16:54:46.123Z,97916.44
2023-05-20T16:57:18.996Z,97909.03
2023-05-20T16:59:49.649Z,97916.16
2023-05-20T17:02:20.288Z,97927.69
2023-05-20T17:04:51.288Z,97924.63
2023-05-20T17:07:21.828Z,97928.47
2023-05-20T17:09:54.651Z,97933.19
2023-05-20T17:12:25.330Z,97929.50
2023-05-20T17:14:55.809Z,97933.50
2023-05-20T17:17:25.989Z,97927.41
2023-05-20T17:19:56.450Z,97933.84
2023-05-20T17:22:26.678Z,97925.56
2023-05-20T17:24:59.770Z,97928.75
2023-05-20T17:27:30.397Z,97928.78
2023-05-20T17:30:01.090Z,97936.09
2023-05-20T17:32:31.673Z,97933.66
2023-05-20T17:35:02.306Z,97938.47
2023-05-20T17:37:32.882Z,97936.88
2023-05-20T17:40:06.939Z,97943.63
2023-05-20T17:42:37.429Z,97941.78
2023-05-20T17:45:09.802Z,97935.69
2023-05-20T17:47:40.344Z,97943.16
2023-05-20T17:50:14.799Z,97937.09
2023-05-20T17:52:45.295Z,97939.16
2023-05-20T17:55:19.293Z,97950.59
2023-05-20T17:57:49.764Z,97949.19
2023-05-20T18:00:21.796Z,97948.66
2023-05-20T18:02:56.399Z,97956.28
2023-05-20T18:05:27.081Z,97939.13
2023-05-20T18:07:57.600Z,97947.53
2023-05-20T18:10:30.924Z,97950.16
2023-05-20T18:13:01.595Z,97953.31
2023-05-20T18:15:31.823Z,97957.34
2023-05-20T18:18:02.748Z,97959.84
2023-05-20T18:20:33.500Z,97963.75
2023-05-20T18:23:04.184Z,97958.78
2023-05-20T18:25:37.166Z,97961.59
2023-05-20T18:28:09.061Z,97969.44
2023-05-20T18:30:39.575Z,97971.06
2023-05-20T18:33:10.141Z,97971.19
2023-05-20T18:35:40.356Z,97971.53
2023-05-20T18:38:11.062Z,97973.38
2023-05-20T18:40:44.216Z,97970.47
2023-05-20T18:43:14.722Z,97964.50
2023-05-20T18:45:45.373Z,97968.41
2023-05-20T18:48:25.627Z,97975.00
2023-05-20T18:50:58.785Z,97982.59
2023-05-20T18:53:29.311Z,97983.56
2023-05-20T18:56:03.483Z,97992.41
2023-05-20T18:58:34.087Z,97989.81
2023-05-20T19:01:04.539Z,97985.13
2023-05-20T19:03:35.131Z,97992.47
2023-05-20T19:06:05.617Z,97993.69
2023-05-20T19:08:36.215Z,98002.50
2023-05-20T19:11:09.455Z,98007.19
2023-05-20T19:13:40.098Z,98008.13
2023-05-20T19:16:11.380Z,98004.84
2023-05-20T19:18:42.008Z,98002.88
2023-05-20T19:21:12.577Z,97999.81
2023-05-20T19:23:43.211Z,98002.63
2023-05-20T19:26:16.143Z,98000.72
2023-05-20T19:28:46.982Z,98004.72
2023-05-20T19:31:21.375Z,98008.59
2023-05-20T19:33:52.474Z,98017.88
2023-05-20T19:36:23.066Z,98002.84
2023-05-20T19:38:53.708Z,98001.38
2023-05-20T19:41:26.744Z,98012.72
2023-05-20T19:43:57.291Z,98009.44
2023-05-20T19:46:27.913Z,98001.84
2023-05-20T19:48:58.201Z,98006.84
2023-05-20T19:51:28.862Z,98007.69
2023-05-20T19:53:59.416Z,98013.31
2023-05-20T19:56:32.599Z,98006.16
2023-05-20T19:59:04.068Z,98008.50
2023-05-20T20:01:34.698Z,97998.94
2023-05-20T20:04:05.280Z,98001.81
2023-05-20T20:06:36.064Z,98002.13
2023-05-20T20:09:06.312Z,98008.06
2023-05-20T20:11:39.439Z,98008.34
2023-05-20T20:14:10.157Z,98008.91
2023-05-20T20:16:41.918Z,98011.69
2023-05-20T20:19:12.778Z,98006.66
2023-05-20T20:21:43.387Z,98003.78
2023-05-20T20:24:14.009Z,98005.84
2023-05-20T20:26:47.740Z,98008.88
2023-05-20T20:29:18.526Z,98003.03
2023-05-20T20:31:48.750Z,98000.88
2023-05-20T20:34:19.239Z,98004.50
2023-05-20T20:36:51.478Z,97991.50
2023-05-20T20:39:25.225Z,97984.31
2023-05-20T20:41:59.044Z,97993.38
2023-05-20T20:44:29.667Z,97990.84
2023-05-20T20:47:00.248Z,97989.34
2023-05-20T20:49:32.315Z,97995.44
2023-05-20T20:52:03.521Z,97996.13
2023-05-20T20:54:34.408Z,97992.50
2023-05-20T20:57:08.026Z,97997.34
2023-05-20T20:59:38.610Z,97999.16
2023-05-20T21:02:09.997Z,98003.38
2023-05-20T21:04:41.588Z,97992.44
2023-05-20T21:07:12.280Z,97989.94
2023-05-20T21:09:42.805Z,97990.25
2023-05-20T21:12:16.143Z,97988.50
2023-05-20T21:14:47.049Z,97991.59
2023-05-20T21:17:17.782Z,97990.81
2023-05-20T21:19:48.031Z,97987.03
2023-05-20T21:22:18.469Z,97993.94
2023-05-20T21:24:48.925Z,97993.22
2023-05-20T21:27:22.309Z,97988.38
2023-05-20T21:29:52.896Z,97994.28
2023-05-20T21:32:23.441Z,97997.66
2023-05-20T21:34:54.906Z,97992.34
2023-05-20T21:37:26.844Z,97996.19
2023-05-20T21:39:57.335Z,97992.66
2023-05-20T21:42:30.442Z,97996.47
2023-05-20T21:45:00.925Z,97992.91
2023-05-20T21:47:31.638Z,97989.56
2023-05-20T21:50:02.275Z,97987.56
2023-05-20T21:52:33.280Z,97991.72
2023-05-20T21:55:03.861Z,97988.22
2023-05-20T21:57:37.038Z,97989.25
2023-05-20T22:00:10.903Z,97984.69
2023-05-20T22:02:41.670Z,97987.00
2023-05-20T22:05:13.865Z,97985.47
2023-05-20T22:07:44.644Z,97986.53
2023-05-20T22:10:17.772Z,97985.72
2023-05-20T22:12:51.035Z,97978.78
2023-05-20T22:15:21.867Z,97979.47
2023-05-20T22:17:52.044Z,97978.19
2023-05-20T22:20:22.670Z,97979.66
2023-05-20T22:22:53.196Z,97981.63
2023-05-20T22:25:23.824Z,97982.56
2023-05-20T22:27:57.260Z,97973.59
2023-05-20T22:30:28.074Z,97980.16
2023-05-20T22:32:58.617Z,97972.22
2023-05-20T22:35:29.343Z,97970.97
2023-05-20T22:38:00.589Z,97969.13
2023-05-20T22:40:31.293Z,97963.25
2023-05-20T22:43:04.533Z,97966.75
2023-05-20T22:45:35.421Z,97959.38
2023-05-20T22:48:06.679Z,97948.38
2023-05-20T22:50:37.618Z,97951.72
2023-05-20T22:53:08.141Z,97947.63
2023-05-20T22:55:38.940Z,97949.91
2023-05-20T22:58:12.559Z,97939.97
2023-05-20T23:00:44.665Z,97940.66
2023-05-20T23:03:15.255Z,97935.06
2023-05-20T23:05:45.870Z,97942.19
2023-05-20T23:08:16.389Z,97929.44
2023-05-20T23:10:46.852Z,97942.19
2023-05-20T23:13:19.977Z,97936.34
2023-05-20T23:15:50.450Z,97935.06
2023-05-20T23:18:21.084Z,97924.59
2023-05-20T23:20:51.356Z,97926.88
2023-05-20T23:23:30.294Z,97929.97
2023-05-20T23:26:02.445Z,97933.28
2023-05-20T23:28:35.606Z,97924.66
2023-05-20T23:31:06.193Z,97935.63
2023-05-20T23:33:36.770Z,97932.13
2023-05-20T23:36:09.280Z,97938.50
2023-05-20T23:38:40.126Z,97933.97
2023-05-20T23:41:10.257Z,97938.25
2023-05-20T23:43:43.239Z,97937.28
2023-05-20T23:46:13.733Z,97941.59
2023-05-20T23:48:45.003Z,97944.41
2023-05-20T23:51:16.527Z,97942.66
2023-05-20T23:53:47.789Z,97934.72
2023-05-20T23:56:18.300Z,97940.88
2023-05-20T23:58:51.368Z,97936.78
